sensor_id;sensor_type;location;lat;lon;timestamp;P1;durP1;ratioP1;P2;durP2;ratioP2
34725;SDS011;20951;50.818;4.344;2023-06-10T00:00:52;11.05;;;6.88;;
34725;SDS011;20951;50.818;4.344;2023-06-10T00:03:18;9.43;;;6.70;;
34725;SDS011;20951;50.818;4.344;2023-06-10T00:05:45;8.55;;;6.65;;
34725;SDS011;20951;50.818;4.344;2023-06-10T00:08:11;8.18;;;6.85;;
34725;SDS011;20951;50.818;4.344;2023-06-10T00:10:37;8.73;;;7.28;;
34725;SDS011;20951;50.818;4.344;2023-06-10T00:13:04;8.82;;;6.57;;
34725;SDS011;20951;50.818;4.344;2023-06-10T00:15:33;8.65;;;6.57;;
34725;SDS011;20951;50.818;4.344;2023-06-10T00:18:01;8.18;;;7.03;;
34725;SDS011;20951;50.818;4.344;2023-06-10T00:20:28;13.95;;;6.90;;
34725;SDS011;20951;50.818;4.344;2023-06-10T00:22:55;6.97;;;6.03;;
34725;SDS011;20951;50.818;4.344;2023-06-10T00:25:24;11.27;;;7.20;;
34725;SDS011;20951;50.818;4.344;2023-06-10T00:27:51;11.02;;;6.75;;
34725;SDS011;20951;50.818;4.344;2023-06-10T00:30:17;7.85;;;7.05;;
34725;SDS011;20951;50.818;4.344;2023-06-10T00:32:42;8.18;;;6.75;;
34725;SDS011;20951;50.818;4.344;2023-06-10T00:35:08;11.75;;;7.25;;
34725;SDS011;20951;50.818;4.344;2023-06-10T00:37:34;8.00;;;6.47;;
34725;SDS011;20951;50.818;4.344;2023-06-10T00:40:01;9.43;;;7.00;;
34725;SDS011;20951;50.818;4.344;2023-06-10T00:42:28;7.18;;;6.47;;
34725;SDS011;20951;50.818;4.344;2023-06-10T00:44:54;11.98;;;7.13;;
34725;SDS011;20951;50.818;4.344;2023-06-10T00:47:20;7.80;;;6.97;;
34725;SDS011;20951;50.818;4.344;2023-06-10T00:49:47;7.70;;;6.80;;
34725;SDS011;20951;50.818;4.344;2023-06-10T00:52:14;9.18;;;7.22;;
34725;SDS011;20951;50.818;4.344;2023-06-10T00:54:42;9.75;;;7.10;;
34725;SDS011;20951;50.818;4.344;2023-06-10T00:57:08;10.07;;;7.60;;
34725;SDS011;20951;50.818;4.344;2023-06-10T00:59:34;9.77;;;7.13;;
34725;SDS011;20951;50.818;4.344;2023-06-10T01:02:01;7.85;;;7.00;;
34725;SDS011;20951;50.818;4.344;2023-06-10T01:04:27;10.90;;;7.50;;
34725;SDS011;20951;50.818;4.344;2023-06-10T01:07:37;8.20;;;7.07;;
34725;SDS011;20951;50.818;4.344;2023-06-10T01:12:20;8.27;;;6.88;;
34725;SDS011;20951;50.818;4.344;2023-06-10T01:14:59;10.98;;;7.50;;
34725;SDS011;20951;50.818;4.344;2023-06-10T01:17:26;8.25;;;6.75;;
34725;SDS011;20951;50.818;4.344;2023-06-10T01:19:57;12.32;;;7.40;;
34725;SDS011;20951;50.818;4.344;2023-06-10T01:22:24;8.48;;;7.13;;
34725;SDS011;20951;50.818;4.344;2023-06-10T01:24:53;11.07;;;7.60;;
34725;SDS011;20951;50.818;4.344;2023-06-10T01:27:29;10.55;;;7.15;;
34725;SDS011;20951;50.818;4.344;2023-06-10T01:29:59;12.85;;;7.05;;
34725;SDS011;20951;50.818;4.344;2023-06-10T01:32:51;12.45;;;7.03;;
34725;SDS011;20951;50.818;4.344;2023-06-10T01:35:18;9.73;;;7.82;;
34725;SDS011;20951;50.818;4.344;2023-06-10T01:37:48;10.43;;;7.60;;
34725;SDS011;20951;50.818;4.344;2023-06-10T01:40:15;13.07;;;7.60;;
34725;SDS011;20951;50.818;4.344;2023-06-10T01:42:41;8.43;;;7.65;;
34725;SDS011;20951;50.818;4.344;2023-06-10T01:45:07;11.23;;;7.45;;
34725;SDS011;20951;50.818;4.344;2023-06-10T01:47:34;10.95;;;7.55;;
34725;SDS011;20951;50.818;4.344;2023-06-10T01:50:00;11.13;;;7.53;;
34725;SDS011;20951;50.818;4.344;2023-06-10T01:52:26;8.48;;;7.30;;
34725;SDS011;20951;50.818;4.344;2023-06-10T01:54:53;8.90;;;7.13;;
34725;SDS011;20951;50.818;4.344;2023-06-10T01:57:19;9.63;;;7.13;;
34725;SDS011;20951;50.818;4.344;2023-06-10T01:59:45;13.25;;;7.75;;
34725;SDS011;20951;50.818;4.344;2023-06-10T02:02:11;9.07;;;6.80;;
34725;SDS011;20951;50.818;4.344;2023-06-10T02:04:37;11.20;;;7.55;;
34725;SDS011;20951;50.818;4.344;2023-06-10T02:07:03;10.60;;;7.35;;
34725;SDS011;20951;50.818;4.344;2023-06-10T02:09:31;9.23;;;7.63;;
34725;SDS011;20951;50.818;4.344;2023-06-10T02:12:00;10.30;;;7.28;;
34725;SDS011;20951;50.818;4.344;2023-06-10T02:14:27;9.10;;;7.25;;
34725;SDS011;20951;50.818;4.344;2023-06-10T02:16:53;8.52;;;7.00;;
34725;SDS011;20951;50.818;4.344;2023-06-10T02:19:22;11.40;;;7.25;;
34725;SDS011;20951;50.818;4.344;2023-06-10T02:21:50;13.18;;;7.50;;
34725;SDS011;20951;50.818;4.344;2023-06-10T02:24:16;11.48;;;7.85;;
34725;SDS011;20951;50.818;4.344;2023-06-10T02:26:42;8.88;;;7.85;;
34725;SDS011;20951;50.818;4.344;2023-06-10T02:29:08;11.93;;;7.28;;
34725;SDS011;20951;50.818;4.344;2023-06-10T02:31:36;9.25;;;7.55;;
34725;SDS011;20951;50.818;4.344;2023-06-10T02:34:02;10.50;;;7.45;;
34725;SDS011;20951;50.818;4.344;2023-06-10T02:36:29;9.38;;;7.38;;
34725;SDS011;20951;50.818;4.344;2023-06-10T02:38:55;12.38;;;7.82;;
34725;SDS011;20951;50.818;4.344;2023-06-10T02:41:21;9.07;;;7.55;;
34725;SDS011;20951;50.818;4.344;2023-06-10T02:43:47;10.55;;;8.02;;
34725;SDS011;20951;50.818;4.344;2023-06-10T02:46:13;12.10;;;7.97;;
34725;SDS011;20951;50.818;4.344;2023-06-10T02:48:42;10.40;;;8.00;;
34725;SDS011;20951;50.818;4.344;2023-06-10T02:51:09;9.27;;;7.70;;
34725;SDS011;20951;50.818;4.344;2023-06-10T02:53:35;10.45;;;8.48;;
34725;SDS011;20951;50.818;4.344;2023-06-10T02:56:02;10.43;;;7.97;;
34725;SDS011;20951;50.818;4.344;2023-06-10T02:58:28;9.43;;;7.60;;
34725;SDS011;20951;50.818;4.344;2023-06-10T03:00:54;11.10;;;7.30;;
34725;SDS011;20951;50.818;4.344;2023-06-10T03:03:20;11.38;;;8.35;;
34725;SDS011;20951;50.818;4.344;2023-06-10T03:05:47;10.18;;;7.78;;
34725;SDS011;20951;50.818;4.344;2023-06-10T03:08:13;12.32;;;7.60;;
34725;SDS011;20951;50.818;4.344;2023-06-10T03:10:39;12.55;;;8.13;;
34725;SDS011;20951;50.818;4.344;2023-06-10T03:13:05;8.50;;;7.40;;
34725;SDS011;20951;50.818;4.344;2023-06-10T03:15:31;10.98;;;7.85;;
34725;SDS011;20951;50.818;4.344;2023-06-10T03:18:01;10.18;;;7.65;;
34725;SDS011;20951;50.818;4.344;2023-06-10T03:20:27;10.82;;;7.80;;
34725;SDS011;20951;50.818;4.344;2023-06-10T03:22:53;12.18;;;8.25;;
34725;SDS011;20951;50.818;4.344;2023-06-10T03:25:20;9.68;;;7.93;;
34725;SDS011;20951;50.818;4.344;2023-06-10T03:27:46;9.48;;;8.27;;
34725;SDS011;20951;50.818;4.344;2023-06-10T03:30:13;12.27;;;8.05;;
34725;SDS011;20951;50.818;4.344;2023-06-10T03:32:42;9.85;;;8.05;;
34725;SDS011;20951;50.818;4.344;2023-06-10T03:35:08;10.23;;;8.13;;
34725;SDS011;20951;50.818;4.344;2023-06-10T03:37:34;10.13;;;8.45;;
34725;SDS011;20951;50.818;4.344;2023-06-10T03:40:01;10.50;;;7.55;;
34725;SDS011;20951;50.818;4.344;2023-06-10T03:42:27;11.80;;;8.15;;
34725;SDS011;20951;50.818;4.344;2023-06-10T03:44:53;11.65;;;8.38;;
34725;SDS011;20951;50.818;4.344;2023-06-10T03:47:19;11.90;;;9.32;;
34725;SDS011;20951;50.818;4.344;2023-06-10T03:49:45;11.45;;;9.05;;
34725;SDS011;20951;50.818;4.344;2023-06-10T03:52:11;11.68;;;8.77;;
34725;SDS011;20951;50.818;4.344;2023-06-10T03:54:37;12.10;;;8.27;;
34725;SDS011;20951;50.818;4.344;2023-06-10T03:57:03;10.38;;;8.32;;
34725;SDS011;20951;50.818;4.344;2023-06-10T03:59:31;11.57;;;7.75;;
34725;SDS011;20951;50.818;4.344;2023-06-10T04:01:57;10.05;;;8.15;;
34725;SDS011;20951;50.818;4.344;2023-06-10T04:04:23;10.32;;;8.10;;
34725;SDS011;20951;50.818;4.344;2023-06-10T04:06:49;9.25;;;8.25;;
34725;SDS011;20951;50.818;4.344;2023-06-10T04:09:15;11.70;;;8.57;;
34725;SDS011;20951;50.818;4.344;2023-06-10T04:11:42;12.48;;;9.40;;
34725;SDS011;20951;50.818;4.344;2023-06-10T04:14:08;14.20;;;9.10;;
34725;SDS011;20951;50.818;4.344;2023-06-10T04:16:34;9.38;;;7.95;;
34725;SDS011;20951;50.818;4.344;2023-06-10T04:19:00;11.30;;;8.50;;
34725;SDS011;20951;50.818;4.344;2023-06-10T04:21:27;9.07;;;8.18;;
34725;SDS011;20951;50.818;4.344;2023-06-10T04:23:53;12.43;;;8.25;;
34725;SDS011;20951;50.818;4.344;2023-06-10T04:26:19;12.23;;;8.30;;
34725;SDS011;20951;50.818;4.344;2023-06-10T04:28:45;9.40;;;8.40;;
34725;SDS011;20951;50.818;4.344;2023-06-10T04:31:11;10.70;;;8.60;;
34725;SDS011;20951;50.818;4.344;2023-06-10T04:33:38;9.68;;;8.32;;
34725;SDS011;20951;50.818;4.344;2023-06-10T04:36:04;11.15;;;8.15;;
34725;SDS011;20951;50.818;4.344;2023-06-10T04:38:31;10.95;;;8.32;;
34725;SDS011;20951;50.818;4.344;2023-06-10T04:40:57;9.88;;;8.75;;
34725;SDS011;20951;50.818;4.344;2023-06-10T04:43:24;10.88;;;8.55;;
34725;SDS011;20951;50.818;4.344;2023-06-10T04:45:50;11.27;;;8.13;;
34725;SDS011;20951;50.818;4.344;2023-06-10T04:48:16;11.23;;;8.32;;
34725;SDS011;20951;50.818;4.344;2023-06-10T04:50:42;13.13;;;8.60;;
34725;SDS011;20951;50.818;4.344;2023-06-10T04:53:08;11.23;;;8.63;;
34725;SDS011;20951;50.818;4.344;2023-06-10T04:55:34;9.77;;;8.63;;
34725;SDS011;20951;50.818;4.344;2023-06-10T04:58:01;13.13;;;7.95;;
34725;SDS011;20951;50.818;4.344;2023-06-10T05:00:27;12.95;;;8.25;;
34725;SDS011;20951;50.818;4.344;2023-06-10T05:02:53;9.95;;;8.73;;
34725;SDS011;20951;50.818;4.344;2023-06-10T05:05:22;12.10;;;8.75;;
34725;SDS011;20951;50.818;4.344;2023-06-10T05:07:48;10.85;;;8.43;;
34725;SDS011;20951;50.818;4.344;2023-06-10T05:10:14;13.18;;;8.45;;
34725;SDS011;20951;50.818;4.344;2023-06-10T05:12:40;10.18;;;8.15;;
34725;SDS011;20951;50.818;4.344;2023-06-10T05:15:07;10.27;;;8.75;;
34725;SDS011;20951;50.818;4.344;2023-06-10T05:17:33;10.38;;;8.25;;
34725;SDS011;20951;50.818;4.344;2023-06-10T05:20:03;13.18;;;8.57;;
34725;SDS011;20951;50.818;4.344;2023-06-10T05:22:29;12.27;;;8.45;;
34725;SDS011;20951;50.818;4.344;2023-06-10T05:24:56;9.75;;;8.57;;
34725;SDS011;20951;50.818;4.344;2023-06-10T05:27:22;10.95;;;8.23;;
34725;SDS011;20951;50.818;4.344;2023-06-10T05:29:48;9.88;;;8.18;;
34725;SDS011;20951;50.818;4.344;2023-06-10T05:32:14;10.73;;;8.23;;
34725;SDS011;20951;50.818;4.344;2023-06-10T05:34:40;9.38;;;8.38;;
34725;SDS011;20951;50.818;4.344;2023-06-10T05:37:06;11.20;;;8.13;;
34725;SDS011;20951;50.818;4.344;2023-06-10T05:39:32;11.95;;;8.32;;
34725;SDS011;20951;50.818;4.344;2023-06-10T05:42:02;10.88;;;8.15;;
34725;SDS011;20951;50.818;4.344;2023-06-10T05:44:30;10.55;;;8.13;;
34725;SDS011;20951;50.818;4.344;2023-06-10T05:46:56;12.23;;;8.77;;
34725;SDS011;20951;50.818;4.344;2023-06-10T05:49:22;12.07;;;8.57;;
34725;SDS011;20951;50.818;4.344;2023-06-10T05:51:48;10.98;;;8.20;;
34725;SDS011;20951;50.818;4.344;2023-06-10T05:54:14;15.80;;;8.38;;
34725;SDS011;20951;50.818;4.344;2023-06-10T05:56:40;8.93;;;7.90;;
34725;SDS011;20951;50.818;4.344;2023-06-10T05:59:06;12.70;;;8.95;;
34725;SDS011;20951;50.818;4.344;2023-06-10T06:01:32;12.40;;;8.13;;
34725;SDS011;20951;50.818;4.344;2023-06-10T06:03:58;10.15;;;8.18;;
34725;SDS011;20951;50.818;4.344;2023-06-10T06:06:24;9.68;;;8.45;;
34725;SDS011;20951;50.818;4.344;2023-06-10T06:08:51;10.77;;;8.43;;
34725;SDS011;20951;50.818;4.344;2023-06-10T06:11:16;12.48;;;8.90;;
34725;SDS011;20951;50.818;4.344;2023-06-10T06:13:43;10.52;;;7.80;;
34725;SDS011;20951;50.818;4.344;2023-06-10T06:16:09;9.38;;;8.35;;
34725;SDS011;20951;50.818;4.344;2023-06-10T06:18:35;15.00;;;8.02;;
34725;SDS011;20951;50.818;4.344;2023-06-10T06:21:01;11.75;;;8.25;;
34725;SDS011;20951;50.818;4.344;2023-06-10T06:23:27;10.05;;;8.23;;
34725;SDS011;20951;50.818;4.344;2023-06-10T06:25:53;10.23;;;7.82;;
34725;SDS011;20951;50.818;4.344;2023-06-10T06:28:20;9.93;;;7.43;;
34725;SDS011;20951;50.818;4.344;2023-06-10T06:30:47;9.27;;;7.63;;
34725;SDS011;20951;50.818;4.344;2023-06-10T06:33:13;8.68;;;6.85;;
34725;SDS011;20951;50.818;4.344;2023-06-10T06:35:39;10.60;;;7.32;;
34725;SDS011;20951;50.818;4.344;2023-06-10T06:38:05;10.05;;;6.90;;
34725;SDS011;20951;50.818;4.344;2023-06-10T06:40:31;10.00;;;7.05;;
34725;SDS011;20951;50.818;4.344;2023-06-10T06:42:57;10.77;;;6.88;;
34725;SDS011;20951;50.818;4.344;2023-06-10T06:45:24;11.05;;;7.63;;
34725;SDS011;20951;50.818;4.344;2023-06-10T06:47:50;8.50;;;6.43;;
34725;SDS011;20951;50.818;4.344;2023-06-10T06:50:16;9.63;;;6.35;;
34725;SDS011;20951;50.818;4.344;2023-06-10T06:52:42;9.13;;;6.80;;
34725;SDS011;20951;50.818;4.344;2023-06-10T06:55:08;8.00;;;6.50;;
34725;SDS011;20951;50.818;4.344;2023-06-10T06:57:34;10.27;;;7.28;;
34725;SDS011;20951;50.818;4.344;2023-06-10T07:00:01;10.77;;;6.90;;
34725;SDS011;20951;50.818;4.344;2023-06-10T07:02:27;9.77;;;6.38;;
34725;SDS011;20951;50.818;4.344;2023-06-10T07:04:53;8.10;;;6.25;;
34725;SDS011;20951;50.818;4.344;2023-06-10T07:07:21;8.20;;;6.63;;
34725;SDS011;20951;50.818;4.344;2023-06-10T07:09:47;9.10;;;6.47;;
34725;SDS011;20951;50.818;4.344;2023-06-10T07:12:13;7.90;;;6.07;;
34725;SDS011;20951;50.818;4.344;2023-06-10T07:14:39;10.20;;;5.75;;
34725;SDS011;20951;50.818;4.344;2023-06-10T07:17:05;7.35;;;5.80;;
34725;SDS011;20951;50.818;4.344;2023-06-10T07:19:31;7.82;;;5.82;;
34725;SDS011;20951;50.818;4.344;2023-06-10T07:21:57;7.18;;;5.72;;
34725;SDS011;20951;50.818;4.344;2023-06-10T07:24:23;9.00;;;5.70;;
34725;SDS011;20951;50.818;4.344;2023-06-10T07:26:49;6.47;;;5.53;;
34725;SDS011;20951;50.818;4.344;2023-06-10T07:29:15;10.70;;;5.85;;
34725;SDS011;20951;50.818;4.344;2023-06-10T07:31:41;8.05;;;5.68;;
34725;SDS011;20951;50.818;4.344;2023-06-10T07:34:07;8.93;;;6.00;;
34725;SDS011;20951;50.818;4.344;2023-06-10T07:36:33;7.78;;;5.68;;
34725;SDS011;20951;50.818;4.344;2023-06-10T07:38:59;8.30;;;5.93;;
34725;SDS011;20951;50.818;4.344;2023-06-10T07:41:26;7.65;;;5.60;;
34725;SDS011;20951;50.818;4.344;2023-06-10T07:43:55;6.68;;;5.68;;
34725;SDS011;20951;50.818;4.344;2023-06-10T07:46:22;8.38;;;5.78;;
34725;SDS011;20951;50.818;4.344;2023-06-10T07:48:48;6.95;;;5.43;;
34725;SDS011;20951;50.818;4.344;2023-06-10T07:51:15;7.10;;;5.90;;
34725;SDS011;20951;50.818;4.344;2023-06-10T07:53:41;6.50;;;5.50;;
34725;SDS011;20951;50.818;4.344;2023-06-10T07:56:07;7.65;;;5.20;;
34725;SDS011;20951;50.818;4.344;2023-06-10T07:58:34;6.22;;;5.50;;
34725;SDS011;20951;50.818;4.344;2023-06-10T08:01:00;7.45;;;5.05;;
34725;SDS011;20951;50.818;4.344;2023-06-10T08:03:26;8.38;;;5.13;;
34725;SDS011;20951;50.818;4.344;2023-06-10T08:05:52;6.80;;;5.32;;
34725;SDS011;20951;50.818;4.344;2023-06-10T08:08:18;5.28;;;4.75;;
34725;SDS011;20951;50.818;4.344;2023-06-10T08:10:44;7.97;;;4.90;;
34725;SDS011;20951;50.818;4.344;2023-06-10T08:13:11;6.75;;;4.95;;
34725;SDS011;20951;50.818;4.344;2023-06-10T08:15:37;7.20;;;4.55;;
34725;SDS011;20951;50.818;4.344;2023-06-10T08:18:03;7.47;;;5.00;;
34725;SDS011;20951;50.818;4.344;2023-06-10T08:20:29;8.75;;;5.00;;
34725;SDS011;20951;50.818;4.344;2023-06-10T08:22:55;6.72;;;4.65;;
34725;SDS011;20951;50.818;4.344;2023-06-10T08:25:21;7.55;;;4.97;;
34725;SDS011;20951;50.818;4.344;2023-06-10T08:27:48;7.45;;;5.05;;
34725;SDS011;20951;50.818;4.344;2023-06-10T08:30:15;8.18;;;4.68;;
34725;SDS011;20951;50.818;4.344;2023-06-10T08:32:41;8.25;;;5.40;;
34725;SDS011;20951;50.818;4.344;2023-06-10T08:35:08;7.68;;;5.18;;
34725;SDS011;20951;50.818;4.344;2023-06-10T08:37:34;7.53;;;4.63;;
34725;SDS011;20951;50.818;4.344;2023-06-10T08:40:00;8.10;;;5.25;;
34725;SDS011;20951;50.818;4.344;2023-06-10T08:44:58;9.13;;;5.43;;
34725;SDS011;20951;50.818;4.344;2023-06-10T08:47:28;7.07;;;5.10;;
34725;SDS011;20951;50.818;4.344;2023-06-10T08:49:56;7.47;;;4.63;;
34725;SDS011;20951;50.818;4.344;2023-06-10T08:52:28;7.20;;;4.80;;
34725;SDS011;20951;50.818;4.344;2023-06-10T08:55:01;5.40;;;4.65;;
34725;SDS011;20951;50.818;4.344;2023-06-10T08:57:30;6.15;;;4.70;;
34725;SDS011;20951;50.818;4.344;2023-06-10T08:59:57;9.95;;;4.85;;
34725;SDS011;20951;50.818;4.344;2023-06-10T09:02:23;6.72;;;4.80;;
34725;SDS011;20951;50.818;4.344;2023-06-10T09:04:50;9.65;;;4.80;;
34725;SDS011;20951;50.818;4.344;2023-06-10T09:07:16;7.22;;;4.80;;
34725;SDS011;20951;50.818;4.344;2023-06-10T09:09:43;5.50;;;4.32;;
34725;SDS011;20951;50.818;4.344;2023-06-10T09:12:10;6.15;;;4.30;;
34725;SDS011;20951;50.818;4.344;2023-06-10T09:14:38;7.63;;;5.07;;
34725;SDS011;20951;50.818;4.344;2023-06-10T09:17:05;5.70;;;4.35;;
34725;SDS011;20951;50.818;4.344;2023-06-10T09:19:31;7.65;;;4.55;;
34725;SDS011;20951;50.818;4.344;2023-06-10T09:21:58;6.80;;;4.60;;
34725;SDS011;20951;50.818;4.344;2023-06-10T09:24:24;5.97;;;4.72;;
34725;SDS011;20951;50.818;4.344;2023-06-10T09:26:52;7.05;;;4.10;;
34725;SDS011;20951;50.818;4.344;2023-06-10T09:29:51;7.20;;;4.40;;
34725;SDS011;20951;50.818;4.344;2023-06-10T09:32:19;7.00;;;4.47;;
34725;SDS011;20951;50.818;4.344;2023-06-10T09:34:46;6.75;;;4.30;;
34725;SDS011;20951;50.818;4.344;2023-06-10T09:37:19;6.82;;;4.72;;
34725;SDS011;20951;50.818;4.344;2023-06-10T09:40:00;8.57;;;4.95;;
34725;SDS011;20951;50.818;4.344;2023-06-10T09:42:35;7.07;;;4.35;;
34725;SDS011;20951;50.818;4.344;2023-06-10T09:45:06;6.78;;;4.25;;
34725;SDS011;20951;50.818;4.344;2023-06-10T09:47:39;4.80;;;4.03;;
34725;SDS011;20951;50.818;4.344;2023-06-10T09:50:05;5.22;;;4.70;;
34725;SDS011;20951;50.818;4.344;2023-06-10T09:52:32;10.32;;;4.32;;
34725;SDS011;20951;50.818;4.344;2023-06-10T09:54:59;6.82;;;4.47;;
34725;SDS011;20951;50.818;4.344;2023-06-10T09:57:30;6.18;;;4.57;;
34725;SDS011;20951;50.818;4.344;2023-06-10T10:00:10;6.85;;;4.40;;
34725;SDS011;20951;50.818;4.344;2023-06-10T10:02:50;8.48;;;4.55;;
34725;SDS011;20951;50.818;4.344;2023-06-10T10:05:19;8.88;;;4.60;;
34725;SDS011;20951;50.818;4.344;2023-06-10T10:07:47;6.80;;;4.60;;
34725;SDS011;20951;50.818;4.344;2023-06-10T10:10:13;5.97;;;4.40;;
34725;SDS011;20951;50.818;4.344;2023-06-10T10:12:41;5.43;;;4.30;;
34725;SDS011;20951;50.818;4.344;2023-06-10T10:15:08;9.95;;;4.50;;
34725;SDS011;20951;50.818;4.344;2023-06-10T10:17:50;6.65;;;4.05;;
34725;SDS011;20951;50.818;4.344;2023-06-10T10:20:42;8.18;;;4.28;;
34725;SDS011;20951;50.818;4.344;2023-06-10T10:23:17;6.40;;;3.90;;
34725;SDS011;20951;50.818;4.344;2023-06-10T10:25:50;6.45;;;4.63;;
34725;SDS011;20951;50.818;4.344;2023-06-10T10:28:19;7.15;;;4.20;;
34725;SDS011;20951;50.818;4.344;2023-06-10T10:30:50;6.90;;;4.00;;
34725;SDS011;20951;50.818;4.344;2023-06-10T10:33:20;4.70;;;3.92;;
34725;SDS011;20951;50.818;4.344;2023-06-10T10:35:52;5.30;;;3.92;;
34725;SDS011;20951;50.818;4.344;2023-06-10T10:38:19;7.30;;;4.07;;
34725;SDS011;20951;50.818;4.344;2023-06-10T10:40:46;7.45;;;3.90;;
34725;SDS011;20951;50.818;4.344;2023-06-10T10:43:13;5.30;;;4.05;;
34725;SDS011;20951;50.818;4.344;2023-06-10T10:45:57;7.22;;;4.13;;
34725;SDS011;20951;50.818;4.344;2023-06-10T10:48:24;6.43;;;3.80;;
34725;SDS011;20951;50.818;4.344;2023-06-10T10:50:57;6.10;;;4.32;;
34725;SDS011;20951;50.818;4.344;2023-06-10T10:53:24;5.43;;;3.83;;
34725;SDS011;20951;50.818;4.344;2023-06-10T10:56:00;3.97;;;3.50;;
34725;SDS011;20951;50.818;4.344;2023-06-10T10:58:32;5.78;;;3.90;;
34725;SDS011;20951;50.818;4.344;2023-06-10T11:00:58;5.43;;;3.83;;
34725;SDS011;20951;50.818;4.344;2023-06-10T11:03:27;11.02;;;3.65;;
34725;SDS011;20951;50.818;4.344;2023-06-10T11:05:57;5.63;;;3.90;;
34725;SDS011;20951;50.818;4.344;2023-06-10T11:11:17;8.75;;;3.97;;
34725;SDS011;20951;50.818;4.344;2023-06-10T11:16:53;5.82;;;4.05;;
34725;SDS011;20951;50.818;4.344;2023-06-10T11:19:36;7.75;;;3.90;;
34725;SDS011;20951;50.818;4.344;2023-06-10T11:22:05;5.43;;;3.85;;
34725;SDS011;20951;50.818;4.344;2023-06-10T11:24:32;6.57;;;4.00;;
34725;SDS011;20951;50.818;4.344;2023-06-10T11:27:17;6.75;;;4.20;;
34725;SDS011;20951;50.818;4.344;2023-06-10T11:32:29;5.38;;;3.70;;
34725;SDS011;20951;50.818;4.344;2023-06-10T11:34:56;7.40;;;4.05;;
34725;SDS011;20951;50.818;4.344;2023-06-10T11:37:22;6.80;;;3.72;;
34725;SDS011;20951;50.818;4.344;2023-06-10T11:39:55;5.40;;;3.75;;
34725;SDS011;20951;50.818;4.344;2023-06-10T11:42:21;6.57;;;4.13;;
34725;SDS011;20951;50.818;4.344;2023-06-10T11:44:51;7.93;;;4.13;;
34725;SDS011;20951;50.818;4.344;2023-06-10T11:47:19;4.68;;;3.75;;
34725;SDS011;20951;50.818;4.344;2023-06-10T11:49:45;9.07;;;4.07;;
34725;SDS011;20951;50.818;4.344;2023-06-10T11:52:26;7.30;;;4.22;;
34725;SDS011;20951;50.818;4.344;2023-06-10T11:54:53;6.93;;;4.10;;
34725;SDS011;20951;50.818;4.344;2023-06-10T11:57:20;4.95;;;3.80;;
34725;SDS011;20951;50.818;4.344;2023-06-10T11:59:46;6.75;;;4.03;;
34725;SDS011;20951;50.818;4.344;2023-06-10T12:02:15;7.28;;;3.85;;
34725;SDS011;20951;50.818;4.344;2023-06-10T12:04:42;10.90;;;4.28;;
34725;SDS011;20951;50.818;4.344;2023-06-10T12:07:08;7.20;;;4.03;;
34725;SDS011;20951;50.818;4.344;2023-06-10T12:09:42;8.32;;;4.18;;
34725;SDS011;20951;50.818;4.344;2023-06-10T12:12:08;5.25;;;3.80;;
34725;SDS011;20951;50.818;4.344;2023-06-10T12:14:54;6.55;;;3.95;;
34725;SDS011;20951;50.818;4.344;2023-06-10T12:19:59;6.85;;;4.15;;
34725;SDS011;20951;50.818;4.344;2023-06-10T12:22:26;5.38;;;4.18;;
34725;SDS011;20951;50.818;4.344;2023-06-10T12:25:02;7.55;;;4.47;;
34725;SDS011;20951;50.818;4.344;2023-06-10T12:27:30;7.68;;;3.80;;
34725;SDS011;20951;50.818;4.344;2023-06-10T12:29:57;5.32;;;3.97;;
34725;SDS011;20951;50.818;4.344;2023-06-10T12:32:42;4.95;;;4.18;;
34725;SDS011;20951;50.818;4.344;2023-06-10T12:35:11;9.77;;;4.53;;
34725;SDS011;20951;50.818;4.344;2023-06-10T12:37:38;6.30;;;4.00;;
34725;SDS011;20951;50.818;4.344;2023-06-10T12:40:05;6.15;;;4.20;;
34725;SDS011;20951;50.818;4.344;2023-06-10T12:42:33;7.25;;;4.55;;
34725;SDS011;20951;50.818;4.344;2023-06-10T12:45:01;7.03;;;4.35;;
34725;SDS011;20951;50.818;4.344;2023-06-10T12:47:31;5.70;;;4.60;;
34725;SDS011;20951;50.818;4.344;2023-06-10T12:49:58;6.40;;;4.53;;
34725;SDS011;20951;50.818;4.344;2023-06-10T12:52:25;8.07;;;4.50;;
34725;SDS011;20951;50.818;4.344;2023-06-10T12:54:51;10.00;;;4.47;;
34725;SDS011;20951;50.818;4.344;2023-06-10T12:57:17;5.45;;;4.47;;
34725;SDS011;20951;50.818;4.344;2023-06-10T12:59:48;7.50;;;4.45;;
34725;SDS011;20951;50.818;4.344;2023-06-10T13:02:23;7.97;;;3.80;;
34725;SDS011;20951;50.818;4.344;2023-06-10T13:04:52;8.43;;;4.50;;
34725;SDS011;20951;50.818;4.344;2023-06-10T13:07:18;5.07;;;4.28;;
34725;SDS011;20951;50.818;4.344;2023-06-10T13:09:45;7.35;;;4.28;;
34725;SDS011;20951;50.818;4.344;2023-06-10T13:12:14;8.23;;;4.55;;
34725;SDS011;20951;50.818;4.344;2023-06-10T13:14:40;7.45;;;4.60;;
34725;SDS011;20951;50.818;4.344;2023-06-10T13:17:06;6.10;;;4.13;;
34725;SDS011;20951;50.818;4.344;2023-06-10T13:19:34;7.30;;;4.65;;
34725;SDS011;20951;50.818;4.344;2023-06-10T13:22:01;8.45;;;4.40;;
34725;SDS011;20951;50.818;4.344;2023-06-10T13:24:27;7.45;;;4.50;;
34725;SDS011;20951;50.818;4.344;2023-06-10T13:26:53;6.03;;;4.80;;
34725;SDS011;20951;50.818;4.344;2023-06-10T13:29:21;5.85;;;4.50;;
34725;SDS011;20951;50.818;4.344;2023-06-10T13:31:47;5.60;;;4.13;;
34725;SDS011;20951;50.818;4.344;2023-06-10T13:34:13;6.22;;;4.72;;
34725;SDS011;20951;50.818;4.344;2023-06-10T13:36:39;7.78;;;4.60;;
34725;SDS011;20951;50.818;4.344;2023-06-10T13:39:07;8.13;;;4.70;;
34725;SDS011;20951;50.818;4.344;2023-06-10T13:41:33;9.82;;;4.70;;
34725;SDS011;20951;50.818;4.344;2023-06-10T13:44:00;7.40;;;4.90;;
34725;SDS011;20951;50.818;4.344;2023-06-10T13:46:26;7.78;;;4.55;;
34725;SDS011;20951;50.818;4.344;2023-06-10T13:48:53;6.47;;;4.70;;
34725;SDS011;20951;50.818;4.344;2023-06-10T13:51:19;9.95;;;4.40;;
34725;SDS011;20951;50.818;4.344;2023-06-10T13:53:46;8.15;;;4.82;;
34725;SDS011;20951;50.818;4.344;2023-06-10T13:56:13;10.15;;;4.43;;
34725;SDS011;20951;50.818;4.344;2023-06-10T13:58:39;10.75;;;5.43;;
34725;SDS011;20951;50.818;4.344;2023-06-10T14:01:07;6.63;;;4.55;;
34725;SDS011;20951;50.818;4.344;2023-06-10T14:03:34;8.60;;;4.70;;
34725;SDS011;20951;50.818;4.344;2023-06-10T14:06:00;7.53;;;4.38;;
34725;SDS011;20951;50.818;4.344;2023-06-10T14:08:26;6.95;;;4.78;;
34725;SDS011;20951;50.818;4.344;2023-06-10T14:10:53;6.40;;;4.53;;
34725;SDS011;20951;50.818;4.344;2023-06-10T14:13:24;6.07;;;4.35;;
34725;SDS011;20951;50.818;4.344;2023-06-10T14:15:54;6.65;;;4.57;;
34725;SDS011;20951;50.818;4.344;2023-06-10T14:18:21;6.05;;;4.20;;
34725;SDS011;20951;50.818;4.344;2023-06-10T14:20:47;5.28;;;4.68;;
34725;SDS011;20951;50.818;4.344;2023-06-10T14:23:17;8.57;;;4.90;;
34725;SDS011;20951;50.818;4.344;2023-06-10T14:25:46;5.85;;;4.60;;
34725;SDS011;20951;50.818;4.344;2023-06-10T14:28:12;8.20;;;5.03;;
34725;SDS011;20951;50.818;4.344;2023-06-10T14:30:38;7.38;;;4.75;;
34725;SDS011;20951;50.818;4.344;2023-06-10T14:33:04;8.55;;;4.45;;
34725;SDS011;20951;50.818;4.344;2023-06-10T14:35:31;9.60;;;5.18;;
34725;SDS011;20951;50.818;4.344;2023-06-10T14:37:57;7.30;;;4.95;;
34725;SDS011;20951;50.818;4.344;2023-06-10T14:40:24;7.55;;;5.10;;
34725;SDS011;20951;50.818;4.344;2023-06-10T14:42:53;9.43;;;5.20;;
34725;SDS011;20951;50.818;4.344;2023-06-10T14:45:23;9.15;;;5.20;;
34725;SDS011;20951;50.818;4.344;2023-06-10T14:47:50;10.52;;;5.22;;
34725;SDS011;20951;50.818;4.344;2023-06-10T14:50:16;8.77;;;5.25;;
34725;SDS011;20951;50.818;4.344;2023-06-10T14:52:43;7.70;;;5.32;;
34725;SDS011;20951;50.818;4.344;2023-06-10T14:55:09;7.05;;;4.95;;
34725;SDS011;20951;50.818;4.344;2023-06-10T14:57:35;10.48;;;5.40;;
34725;SDS011;20951;50.818;4.344;2023-06-10T15:00:01;9.05;;;5.70;;
34725;SDS011;20951;50.818;4.344;2023-06-10T15:02:27;8.40;;;5.13;;